Time;durP1;ratioP1;P1;durP2;ratioP2;P2;SDS_P1;SDS_P2;PMS_P1;PMS_P2;Temp;Humidity;BMP_temperature;BMP_pressure;BME280_temperature;BME280_humidity;BME280_pressure;Samples;Min_cycle;Max_cycle;Signal;HPM_P1;HPM_P2
2022/01/15 00:01:48;;;;;;;381.70;99.07;;;;;;;3.29;100.00;102783.00;6235017;23;20024;-86
2022/01/15 00:04:14;;;;;;;350.83;88.43;;;;;;;3.30;100.00;102768.81;6233276;22;20486;-86
2022/01/15 00:06:39;;;;;;;326.48;82.10;;;;;;;3.27;100.00;102760.13;6236256;23;20016;-85
2022/01/15 00:09:05;;;;;;;341.92;88.40;;;;;;;3.24;100.00;102753.16;6234674;23;20028;-86
2022/01/15 00:11:31;;;;;;;304.70;84.47;;;;;;;3.26;100.00;102751.31;6236274;22;20012;-85
2022/01/15 00:14:09;;;;;;;327.33;108.65;;;;;;;3.27;100.00;102747.72;6260951;22;20016;-87
2022/01/15 00:16:45;;;;;;;329.00;102.85;;;;;;;3.28;100.00;102756.53;6234337;23;20021;-86
2022/01/15 00:19:14;;;;;;;350.05;105.32;;;;;;;3.28;100.00;102757.41;6232175;22;20019;-85
2022/01/15 00:21:40;;;;;;;332.92;99.60;;;;;;;3.29;100.00;102747.66;6206772;23;20082;-85
2022/01/15 00:24:06;;;;;;;356.60;94.68;;;;;;;3.28;100.00;102741.50;6237747;22;20016;-86
2022/01/15 00:26:33;;;;;;;275.05;75.05;;;;;;;3.25;100.00;102736.31;6209708;22;20013;-85
2022/01/15 00:28:59;;;;;;;339.88;100.72;;;;;;;3.25;100.00;102736.31;6260157;22;20411;-86
2022/01/15 00:31:25;;;;;;;310.00;94.20;;;;;;;3.27;100.00;102742.41;6235257;22;20504;-86
2022/01/15 00:33:51;;;;;;;324.58;96.43;;;;;;;3.29;100.00;102745.84;6237159;22;20023;-85
2022/01/15 00:36:17;;;;;;;341.83;94.38;;;;;;;3.29;100.00;102731.72;6233967;22;20546;-85
2022/01/15 00:38:43;;;;;;;338.05;93.72;;;;;;;3.28;100.00;102728.22;6234608;23;20023;-86
2022/01/15 00:41:09;;;;;;;305.48;82.95;;;;;;;3.29;100.00;102734.38;6234984;22;20457;-85
2022/01/15 00:43:34;;;;;;;240.57;67.68;;;;;;;3.28;100.00;102741.50;6232262;23;20027;-86
2022/01/15 00:46:00;;;;;;;281.17;83.22;;;;;;;3.29;100.00;102745.84;6234027;23;20028;-86
2022/01/15 00:48:26;;;;;;;340.50;89.72;;;;;;;3.29;100.00;102735.25;6233573;22;20023;-86
2022/01/15 00:50:51;;;;;;;403.02;96.53;;;;;;;3.29;100.00;102737.91;6234777;22;20012;-86
2022/01/15 00:53:17;;;;;;;340.13;82.35;;;;;;;3.28;100.00;102733.53;6233258;22;20081;-85
2022/01/15 00:55:43;;;;;;;359.38;94.43;;;;;;;3.29;100.00;102729.94;6235778;23;20020;-85
2022/01/15 00:58:09;;;;;;;298.90;83.32;;;;;;;3.30;100.00;102728.13;6181553;22;20024;-86
2022/01/15 01:00:34;;;;;;;320.35;85.38;;;;;;;3.30;100.00;102715.72;6258420;22;20365;-86
2022/01/15 01:03:00;;;;;;;396.60;85.28;;;;;;;3.29;100.00;102724.63;6234776;23;20012;-85
2022/01/15 01:05:26;;;;;;;279.80;73.40;;;;;;;3.29;100.00;102732.59;6257243;22;20016;-86
2022/01/15 01:07:52;;;;;;;322.30;78.35;;;;;;;3.27;100.00;102726.47;6208697;23;20464;-85
2022/01/15 01:21:24;;;;;;;291.52;73.03;;;;;;;3.28;100.00;102717.63;6236246;22;20026;-85
2022/01/15 01:23:48;;;;;;;302.50;68.40;;;;;;;3.21;100.00;102704.69;6233948;23;20016;-86
2022/01/15 01:26:31;;;;;;;255.05;61.92;;;;;;;3.22;100.00;102706.41;6257884;22;20023;-85
2022/01/15 01:29:14;;;;;;;269.48;69.20;;;;;;;3.23;100.00;102702.84;6236809;22;20027;-86
2022/01/15 01:31:54;;;;;;;291.40;74.93;;;;;;;3.24;100.00;102689.47;6208202;23;20043;-85
2022/01/15 01:34:20;;;;;;;275.23;73.63;;;;;;;3.26;100.00;102681.47;6211300;22;20372;-85
2022/01/15 01:39:48;;;;;;;292.23;73.10;;;;;;;3.27;100.00;102675.22;6205339;23;20012;-86
2022/01/15 01:45:09;;;;;;;262.20;61.95;;;;;;;3.27;100.00;102673.41;6237602;22;20038;-85
2022/01/15 01:47:40;;;;;;;306.00;80.80;;;;;;;3.30;100.00;102675.06;6236996;22;20019;-85
2022/01/15 01:50:14;;;;;;;272.95;75.47;;;;;;;3.28;100.00;102675.16;6236121;22;20079;-85
2022/01/15 01:52:40;;;;;;;230.57;65.18;;;;;;;3.29;100.00;102676.00;6233781;23;20095;-86
2022/01/15 01:55:06;;;;;;;261.58;69.72;;;;;;;3.29;100.00;102676.88;6258259;22;20020;-85
2022/01/15 01:57:33;;;;;;;349.63;83.75;;;;;;;3.31;100.00;102674.13;6232681;22;20020;-85
2022/01/15 01:59:58;;;;;;;329.20;80.30;;;;;;;3.30;100.00;102669.75;6233805;22;20669;-86
2022/01/15 02:02:24;;;;;;;356.45;81.88;;;;;;;3.29;100.00;102666.25;6230170;22;20031;-85
2022/01/15 02:04:49;;;;;;;312.55;78.05;;;;;;;3.29;100.00;102662.75;6233542;22;20032;-86
2022/01/15 02:07:15;;;;;;;308.95;73.53;;;;;;;3.28;100.00;102656.56;6231845;22;20509;-86
2022/01/15 02:09:40;;;;;;;291.95;73.90;;;;;;;3.25;100.00;102659.38;6235205;22;20395;-85
2022/01/15 02:12:06;;;;;;;328.88;80.40;;;;;;;3.27;100.00;102664.59;6234832;22;20016;-86
2022/01/15 02:14:31;;;;;;;323.80;80.38;;;;;;;3.26;100.00;102661.09;6232874;22;20031;-86
2022/01/15 02:16:58;;;;;;;329.13;79.13;;;;;;;3.27;100.00;102656.63;6233443;22;20551;-86
2022/01/15 02:19:34;;;;;;;261.13;62.80;;;;;;;3.25;100.00;102659.38;6234270;22;20044;-86
2022/01/15 02:24:44;;;;;;;266.63;72.72;;;;;;;3.26;100.00;102637.22;6232419;23;20019;-86
2022/01/15 02:27:10;;;;;;;236.98;61.67;;;;;;;3.23;100.00;102632.03;6231215;22;20020;-86
2022/01/15 02:29:35;;;;;;;219.10;56.05;;;;;;;3.23;100.00;102636.50;6207787;23;20020;-86
2022/01/15 02:32:01;;;;;;;255.02;67.13;;;;;;;3.26;100.00;102650.47;6231603;23;20017;-85
2022/01/15 02:34:27;;;;;;;257.63;72.70;;;;;;;3.27;100.00;102651.34;6229290;22;20020;-86
2022/01/15 02:36:52;;;;;;;237.55;63.28;;;;;;;3.27;100.00;102641.56;6235350;22;20020;-85
2022/01/15 02:39:18;;;;;;;247.48;63.83;;;;;;;3.26;100.00;102629.25;6257167;22;20095;-85
2022/01/15 02:41:43;;;;;;;239.57;68.32;;;;;;;3.26;100.00;102618.63;6257364;22;20024;-86
2022/01/15 02:44:16;;;;;;;234.05;70.53;;;;;;;3.28;100.00;102637.13;6236133;22;20054;-86
2022/01/15 02:49:13;;;;;;;299.52;75.47;;;;;;;3.30;100.00;102629.97;6234455;22;20031;-86
2022/01/15 02:51:38;;;;;;;275.00;74.72;;;;;;;3.28;100.00;102624.75;6236401;22;20046;-86
2022/01/15 02:54:05;;;;;;;238.30;59.42;;;;;;;3.26;100.00;102615.13;6211320;23;20024;-86
2022/01/15 02:56:39;;;;;;;243.02;64.78;;;;;;;3.24;100.00;102623.13;6234298;22;20024;-86
2022/01/15 02:59:14;;;;;;;262.77;71.97;;;;;;;3.25;100.00;102624.00;6235827;23;20016;-86
2022/01/15 03:01:39;;;;;;;248.82;62.00;;;;;;;3.23;100.00;102621.44;6209520;23;20035;-86
2022/01/15 03:04:05;;;;;;;211.20;57.42;;;;;;;3.22;100.00;102614.38;6260694;22;20349;-86
2022/01/15 03:06:30;;;;;;;157.48;44.53;;;;;;;3.25;100.00;102605.44;6259261;22;20433;-86
2022/01/15 03:08:56;;;;;;;203.45;55.42;;;;;;;3.25;100.00;102613.38;6260123;22;20114;-87
2022/01/15 03:11:22;;;;;;;243.88;62.25;;;;;;;3.27;100.00;102609.72;6259197;22;20024;-86
2022/01/15 03:13:48;;;;;;;230.75;63.75;;;;;;;3.28;100.00;102611.47;6261282;22;20020;-86
2022/01/15 03:16:19;;;;;;;229.32;60.85;;;;;;;3.26;100.00;102615.13;6232294;22;20024;-86
2022/01/15 03:18:45;;;;;;;243.25;57.90;;;;;;;3.24;100.00;102615.19;6234963;23;20023;-86
2022/01/15 03:21:11;;;;;;;260.17;68.55;;;;;;;3.24;100.00;102599.25;6237330;22;20024;-86
2022/01/15 03:23:37;;;;;;;265.35;68.63;;;;;;;3.26;100.00;102594.75;6233727;23;20119;-86
2022/01/15 03:26:04;;;;;;;253.20;62.67;;;;;;;3.27;100.00;102592.94;6235851;23;20027;-86
2022/01/15 03:28:29;;;;;;;218.88;59.80;;;;;;;3.25;100.00;102585.09;6236073;22;20074;-86
2022/01/15 03:30:55;;;;;;;202.07;50.92;;;;;;;3.25;100.00;102595.69;6236381;22;20024;-86
2022/01/15 03:33:21;;;;;;;188.57;54.35;;;;;;;3.27;100.00;102593.81;6231301;22;20023;-86
2022/01/15 03:35:46;;;;;;;222.50;55.83;;;;;;;3.27;100.00;102588.50;6234680;23;20043;-85
2022/01/15 03:38:12;;;;;;;225.57;56.53;;;;;;;3.29;100.00;102589.28;6183255;22;20024;-86
2022/01/15 03:40:37;;;;;;;216.40;55.78;;;;;;;3.26;100.00;102580.63;6234384;22;20017;-86
2022/01/15 03:43:05;;;;;;;223.38;57.53;;;;;;;3.26;100.00;102586.78;6235762;23;20063;-86
2022/01/15 03:45:31;;;;;;;204.68;56.80;;;;;;;3.26;100.00;102586.78;6233123;22;20070;-86
2022/01/15 03:47:59;;;;;;;233.82;60.15;;;;;;;3.26;100.00;102586.78;6232244;23;20078;-85
2022/01/15 03:50:25;;;;;;;221.48;57.42;;;;;;;3.28;100.00;102579.63;6233636;22;20349;-86
2022/01/15 03:52:53;;;;;;;196.93;55.15;;;;;;;3.27;100.00;102582.34;6234244;23;20536;-86
2022/01/15 03:55:19;;;;;;;249.07;61.22;;;;;;;3.28;100.00;102574.31;6235227;22;20016;-85
2022/01/15 03:57:44;;;;;;;241.40;56.63;;;;;;;3.26;100.00;102576.19;6260749;22;20047;-85
2022/01/15 04:00:14;;;;;;;241.93;61.10;;;;;;;3.28;100.00;102578.75;6259788;22;20031;-86
2022/01/15 04:02:41;;;;;;;145.75;40.90;;;;;;;3.23;100.00;102563.06;6234147;23;20027;-86
2022/01/15 04:05:09;;;;;;;160.18;48.92;;;;;;;3.26;100.00;102564.72;6234117;23;20040;-85
2022/01/15 04:07:35;;;;;;;144.15;40.35;;;;;;;3.26;100.00;102568.22;6259997;22;20031;-86
2022/01/15 04:10:01;;;;;;;133.75;41.30;;;;;;;3.26;100.00;102560.25;6256601;22;20019;-85
2022/01/15 04:12:26;;;;;;;140.10;40.08;;;;;;;3.27;100.00;102561.97;6259281;22;20012;-85
2022/01/15 04:14:52;;;;;;;137.38;41.72;;;;;;;3.27;100.00;102547.84;6260906;22;20022;-85
2022/01/15 04:17:17;;;;;;;115.63;34.40;;;;;;;3.25;100.00;102547.94;6233177;22;20016;-86
2022/01/15 04:19:43;;;;;;;124.72;36.72;;;;;;;3.24;100.00;102546.19;6235187;23;20026;-85
2022/01/15 04:22:08;;;;;;;146.68;38.13;;;;;;;3.24;100.00;102550.66;6234577;23;20024;-86
2022/01/15 04:24:34;;;;;;;135.27;37.22;;;;;;;3.24;100.00;102535.59;6232965;23;20012;-86
2022/01/15 04:26:59;;;;;;;119.72;37.63;;;;;;;3.24;100.00;102538.22;6235430;23;20182;-86
2022/01/15 04:29:24;;;;;;;148.50;38.00;;;;;;;3.23;100.00;102539.19;6233046;22;20020;-86
2022/01/15 04:31:51;;;;;;;117.38;34.10;;;;;;;3.24;100.00;102538.22;6234515;23;20016;-85
2022/01/15 04:34:25;;;;;;;109.40;30.33;;;;;;;3.20;100.00;102539.34;6233119;22;20091;-86
2022/01/15 04:36:52;;;;;;;131.02;33.95;;;;;;;3.21;100.00;102525.13;6259593;22;20081;-86
2022/01/15 04:39:18;;;;;;;115.40;36.00;;;;;;;3.23;100.00;102530.38;6234574;22;20449;-86
2022/01/15 04:41:44;;;;;;;105.53;32.97;;;;;;;3.23;100.00;102528.56;6234666;23;20016;-86
2022/01/15 04:44:09;;;;;;;103.35;34.10;;;;;;;3.23;100.00;102533.88;6235723;23;20016;-85
2022/01/15 04:46:36;;;;;;;103.47;33.90;;;;;;;3.23;100.00;102528.56;6236007;22;20340;-86
2022/01/15 04:49:03;;;;;;;105.82;34.10;;;;;;;3.22;100.00;102526.81;6261284;22;20023;-86
2022/01/15 04:51:29;;;;;;;98.68;31.95;;;;;;;3.23;100.00;102531.22;6259431;22;20024;-86
2022/01/15 04:53:54;;;;;;;97.82;32.38;;;;;;;3.22;100.00;102534.78;6230605;22;20019;-86
2022/01/15 04:56:20;;;;;;;90.78;31.45;;;;;;;3.22;100.00;102526.81;6234539;22;20023;-86
2022/01/15 04:58:45;;;;;;;89.47;29.40;;;;;;;3.20;100.00;102528.72;6233846;23;20099;-85
2022/01/15 05:01:11;;;;;;;97.53;31.95;;;;;;;3.21;100.00;102527.78;6235210;23;20012;-86
2022/01/15 05:03:36;;;;;;;101.80;33.95;;;;;;;3.21;100.00;102527.78;6234418;23;20048;-86
2022/01/15 05:06:02;;;;;;;98.55;33.05;;;;;;;3.20;100.00;102511.94;6234217;23;20024;-86
2022/01/15 05:08:27;;;;;;;96.30;31.35;;;;;;;3.20;100.00;102515.44;6255318;22;20020;-86
2022/01/15 05:10:57;;;;;;;101.07;31.27;;;;;;;3.20;100.00;102519.91;6235099;23;20087;-86
2022/01/15 05:13:27;;;;;;;100.75;29.80;;;;;;;3.17;100.00;102521.75;6233660;22;20492;-86
2022/01/15 05:15:53;;;;;;;102.80;30.58;;;;;;;3.17;100.00;102521.75;6235249;22;20031;-86
2022/01/15 05:18:19;;;;;;;101.95;32.40;;;;;;;3.18;100.00;102525.28;6209107;22;20016;-86
2022/01/15 05:20:45;;;;;;;83.03;28.85;;;;;;;3.19;100.00;102523.47;6214452;23;20020;-86
2022/01/15 05:23:12;;;;;;;82.05;28.58;;;;;;;3.22;100.00;102525.97;6240740;22;20018;-86
2022/01/15 05:25:38;;;;;;;87.20;31.98;;;;;;;3.20;100.00;102522.56;6238181;22;20054;-86
2022/01/15 05:28:04;;;;;;;78.95;27.25;;;;;;;3.20;100.00;102515.44;6240202;22;20016;-86
2022/01/15 05:30:31;;;;;;;78.82;27.42;;;;;;;3.19;100.00;102511.06;6235694;22;20016;-86
2022/01/15 05:32:58;;;;;;;84.85;31.63;;;;;;;3.21;100.00;102511.84;6239547;23;20019;-87
2022/01/15 05:35:26;;;;;;;81.75;31.13;;;;;;;3.18;100.00;102509.34;6236565;22;20020;-86
2022/01/15 05:37:52;;;;;;;93.47;34.17;;;;;;;3.19;100.00;102512.84;6239424;23;20016;-86
2022/01/15 05:40:18;;;;;;;80.82;28.33;;;;;;;3.17;100.00;102515.59;6262908;22;20046;-85
2022/01/15 05:42:43;;;;;;;84.07;29.33;;;;;;;3.16;100.00;102511.22;6241424;22;20012;-86
2022/01/15 05:45:10;;;;;;;80.65;27.40;;;;;;;3.14;100.00;102513.09;6238943;22;20091;-86
2022/01/15 05:47:35;;;;;;;85.18;29.42;;;;;;;3.11;100.00;102514.09;6236327;22;20032;-86
2022/01/15 05:50:01;;;;;;;83.55;23.80;;;;;;;3.06;100.00;102508.16;6235445;23;20027;-86
2022/01/15 05:52:26;;;;;;;95.18;30.17;;;;;;;3.07;100.00;102509.88;6235795;22;20575;-86
2022/01/15 05:54:51;;;;;;;83.72;26.60;;;;;;;3.09;100.00;102515.09;6261576;22;20050;-86
2022/01/15 05:57:17;;;;;;;82.43;26.30;;;;;;;3.05;100.00;102513.53;6211077;22;20019;-86
2022/01/15 05:59:44;;;;;;;74.88;22.48;;;;;;;3.02;100.00;102509.25;6237071;23;20030;-86
2022/01/15 06:02:10;;;;;;;80.03;29.30;;;;;;;3.05;100.00;102513.53;6264153;22;20480;-86
2022/01/15 06:04:35;;;;;;;97.55;31.10;;;;;;;3.05;100.00;102509.09;6236496;22;20095;-86
2022/01/15 06:07:01;;;;;;;96.72;27.58;;;;;;;3.05;100.00;102513.53;6239077;23;20330;-86
2022/01/15 06:09:26;;;;;;;94.15;30.05;;;;;;;3.05;100.00;102501.13;6237485;22;20016;-86
2022/01/15 06:11:55;;;;;;;96.30;29.80;;;;;;;3.04;100.00;102501.19;6238014;22;20411;-87
2022/01/15 06:14:20;;;;;;;92.00;27.65;;;;;;;3.03;100.00;102497.69;6237068;22;20138;-86
2022/01/15 06:16:46;;;;;;;103.20;32.03;;;;;;;3.05;100.00;102492.28;6239276;22;20016;-85
2022/01/15 06:19:11;;;;;;;98.03;31.63;;;;;;;3.05;100.00;102490.53;6238971;23;20142;-86
2022/01/15 06:21:36;;;;;;;112.10;33.28;;;;;;;3.06;100.00;102488.72;6239349;22;20020;-86
2022/01/15 06:24:02;;;;;;;116.93;33.05;;;;;;;3.06;100.00;102500.19;6239459;23;20360;-85
2022/01/15 06:26:27;;;;;;;104.68;31.30;;;;;;;3.06;100.00;102502.84;6212117;22;20020;-85
2022/01/15 06:28:53;;;;;;;104.65;31.35;;;;;;;3.04;100.00;102496.75;6238804;22;20043;-86
2022/01/15 06:31:18;;;;;;;97.38;29.92;;;;;;;3.03;100.00;102496.84;6236251;22;20045;-85
2022/01/15 06:33:43;;;;;;;97.20;27.67;;;;;;;3.00;100.00;102489.03;6238044;23;20019;-85
2022/01/15 06:36:18;;;;;;;101.72;26.80;;;;;;;3.00;100.00;102491.69;6204804;23;20116;-86
2022/01/15 06:38:43;;;;;;;104.32;29.92;;;;;;;3.01;100.00;102490.75;6044727;23;20098;-86
2022/01/15 06:41:09;;;;;;;100.07;29.67;;;;;;;2.98;100.00;102474.97;6116623;23;20396;-86
2022/01/15 06:43:34;;;;;;;118.50;32.13;;;;;;;2.97;100.00;102489.19;6114835;23;20029;-86
2022/01/15 06:46:00;;;;;;;131.07;34.88;;;;;;;2.99;100.00;102485.50;6065622;23;20019;-86
2022/01/15 06:48:26;;;;;;;99.93;31.33;;;;;;;3.00;100.00;102489.88;6056683;23;20023;-86
2022/01/15 06:50:52;;;;;;;107.78;31.25;;;;;;;2.99;100.00;102487.28;6057052;23;20118;-86
2022/01/15 06:53:17;;;;;;;103.05;31.55;;;;;;;2.99;100.00;102484.63;6033592;23;20019;-86
2022/01/15 06:55:53;;;;;;;;;;;;;;;;;;;;;
2022/01/15 06:58:42;;;;;;;;;;;;;;;;;;;;;
2022/01/15 07:01:36;;;;;;;113.57;32.05;;;;;;;2.91;100.00;102474.41;5691689;23;3416293;-86
2022/01/15 07:04:14;;;;;;;111.15;33.65;;;;;;;2.86;100.00;102477.28;5694072;23;6655060;-86
2022/01/15 07:06:40;;;;;;;106.18;31.85;;;;;;;2.87;100.00;102476.34;5876355;23;2224042;-86
2022/01/15 07:09:05;;;;;;;127.55;37.45;;;;;;;2.89;100.00;102466.53;5992833;23;429882;-86
2022/01/15 07:11:31;;;;;;;121.22;36.17;;;;;;;2.88;100.00;102458.66;5970958;23;20489;-86
2022/01/15 07:13:56;;;;;;;129.75;35.72;;;;;;;2.89;100.00;102466.53;5972540;23;20020;-86
2022/01/15 07:16:22;;;;;;;141.82;38.72;;;;;;;2.91;100.00;102464.66;5995142;23;20024;-86
2022/01/15 07:18:47;;;;;;;136.38;36.90;;;;;;;2.89;100.00;102460.38;5973486;23;20107;-87
2022/01/15 07:21:12;;;;;;;117.50;35.72;;;;;;;2.88;100.00;102463.97;5977777;23;20024;-86
2022/01/15 07:23:38;;;;;;;132.73;39.63;;;;;;;2.88;100.00;102461.31;6039153;23;20045;-86
2022/01/15 07:26:04;;;;;;;133.60;39.00;;;;;;;2.89;100.00;102461.22;6122597;23;20021;-87
2022/01/15 07:28:30;;;;;;;143.52;41.83;;;;;;;2.89;100.00;102461.22;6150341;23;20019;-86
2022/01/15 07:30:56;;;;;;;136.77;34.83;;;;;;;2.90;100.00;102457.63;6152095;23;20096;-86
2022/01/15 07:33:28;;;;;;;148.02;39.28;;;;;;;2.91;100.00;102454.06;6147315;23;20100;-86
2022/01/15 07:36:05;;;;;;;;;;;;;;;;;;;;;
2022/01/15 07:39:02;;;;;;;;;;;;;;;;;;;;;
